Overview Statistics Trail Chart Weather Telemetry Raw packets
 

This is the latest recevied weather packets stored in our database for station/object OE3CJB-13. If no packets are shown the sender has not sent any weather packets the latest 10 day(s).

<< 7 8 9 10 11 12 13 >>
Time Temp. Humidity Pressure Rain* Wind** Luminosity Snow
1788516049 27.22° C 32% 1173.4 hPa 0 mm - - -
1788515165 27.22° C 33% 1174.2 hPa 0 mm - - -
1788514265 26.67° C 35% 1173.6 hPa 0 mm - - -
1788513358 26.11° C 39% 1174.6 hPa 0 mm - - -
1788512448 25.56° C 40% 1173.9 hPa 0 mm - - -
1788511534 25° C 42% 1174.1 hPa 0 mm - - -
1788510621 24.44° C 44% 1174.1 hPa 0 mm - - -
1788509759 23.33° C 48% 1174 hPa 0 mm - - -
1788508848 22.78° C 52% 1174.8 hPa 0 mm - - -
1788507934 21.67° C 58% 1174.1 hPa 0 mm - - -
1788507070 21.11° C 59% 1174 hPa 0 mm - - -
1788506158 20.56° C 62% 1174 hPa 0 mm - - -
1788505268 20.56° C 63% 1174.9 hPa 0 mm - - -
1788504334 20° C 64% 1174.9 hPa 0 mm - - -
1788503471 20° C 65% 1174.9 hPa 0 mm - - -
1788502570 20° C 65% 1174.1 hPa 0 mm - - -
1788501648 20° C 65% 1175.7 hPa 0 mm - - -
1788500734 19.44° C 65% 1174.9 hPa 0 mm - - -
1788499822 19.44° C 64% 1174.9 hPa 0 mm - - -
1788498958 19.44° C 64% 1175 hPa 0 mm - - -
1788498048 19.44° C 64% 1174.9 hPa 0 mm - - -
1788497133 19.44° C 64% 1176.4 hPa 0 mm - - -
1788496222 19.44° C 64% 1177.1 hPa 0 mm - - -
1788495370 19.44° C 64% 1177.1 hPa 0 mm - - -
1788494470 19.44° C 64% 1177.9 hPa 0 mm - - -

* Rain latest hour (hover to see other rain measurements)
** Current wind speed in m/s (hover to see current wind gust speed)